No Warnings, Watches, or Advisories

Active alerts


No alerts

Hours of Daylight

15 hrs 6 min 18 sec
of Daylight Today
62.9% Day 37.1% Night Which is 23 sec Longer
Than Yesterday

South Webcam more information South Webcam


NorthWest Webcam more information NorthWest Webcam


You find our weather info also at:

UK Metoffice

Weather Underground

Mid-Atlantic Weather Network

WeatherlinkIP

Citizen Weather Observer Program (CWOP)

HAMweather, WeatherForYou, PWS Weather



Nearby METAR Reports

   
KDUJ - Du Bois, Pennsylvania, USA
Distance from station: NNE 16 mi
Updated: Jun 14 2021 6:53 am
Clear  
Clear  
   Wind: WSW 4.6 mph
Wind: WSW 4.6 mph
Temperature: 57.2°F
Dew Point: 55.4°F
Humidity: 94%
Barometer: 29.87 inHg
Clouds: Clear
Visibility: 7 mi
Cloud details: Clear
KDUJ 141053Z AUTO 24004KT 7SM CLR 14/13 A2987 RMK AO2 SLP104 T01440128 $
KIDI - Indiana/Stewart, Pennsylvania, USA
Distance from station: SSW 23 mi
Updated: Jun 14 2021 7:15 am
Fog, Overcast  
Fog, Overcast  
   Wind: Calm
Wind: Calm
Temperature: 60.8°F
Dew Point: 60.8°F
Humidity: 100%
Barometer: 29.92 inHg
Clouds: Overcast
Visibility: less than 1 mi
Cloud details: Overcast 200 ft
KIDI 141115Z AUTO 00000KT M1/4SM FG OVC002 16/16 A2992 RMK A01
KFIG - Clearfield, Pennsylvania, USA
Distance from station: ENE 31 mi
Updated: Jun 14 2021 6:54 am
Clear  
Clear  
   Wind: varies 3.5 mph
Wind: varies 3.5 mph
Temperature: 60.8°F
Dew Point: 59°F
Humidity: 94%
Barometer: 29.87 inHg
Clouds: Clear
Visibility: 10 mi
Cloud details: Clear
KFIG 141054Z AUTO VRB03KT 10SM CLR 16/15 A2987 RMK AO2 SLP106 T01560150
KJST - Johnstown, Pennsylvania, USA
Distance from station: S 44 mi
Updated: Jun 14 2021 6:54 am
Mist, Clear  
Mist, Clear  
   Wind: WNW 5.8 mph
Wind: WNW 5.8 mph
Temperature: 62.6°F
Dew Point: 57.2°F
Humidity: 83%
Barometer: 29.89 inHg
Clouds: Clear
Visibility: 6 mi
Cloud details: Clear
KJST 141054Z AUTO 29005KT 6SM BR CLR 17/14 A2989 RMK AO2 SLP110 T01670144
KPIT - Pittsburgh, Pennsylvania, USA
Distance from station: WSW 74 mi
Updated: Jun 14 2021 6:51 am
Few Clouds  
Few Clouds  
   Wind: Calm
Wind: Calm
Temperature: 60.8°F
Dew Point: 57.2°F
Humidity: 88%
Barometer: 29.88 inHg
Clouds: Few Clouds
Visibility: 10 mi
Cloud details: Few Clouds 25000 ft
KPIT 141051Z 00000KT 10SM FEW250 16/14 A2988 RMK AO2 SLP120 T01560139 $
KLBE - Latrobe/Westmorl, Pennsylvania, USA
Distance from station: SSW 52 mi
Updated: Jun 14 2021 7:50 am
Mist, Overcast  
Mist, Overcast  
   Wind: WSW 5.8 mph
Wind: WSW 5.8 mph
Temperature: 64.4°F
Dew Point: 64.4°F
Humidity: 100%
Barometer: 29.89 inHg
Clouds: Overcast
Visibility: 2 mi
Cloud details: Overcast 100 ft
KLBE 141150Z COR 24005KT 2SM BR OVC001 18/18 A2989
KBTP - Butler Co., Pennsylvania, USA
Distance from station: WSW 52 mi
Updated: Jun 14 2021 6:56 am
Clear  
Clear  
   Wind: Calm
Wind: Calm
Temperature: 57.2°F
Dew Point: 57.2°F
Humidity: 100%
Barometer: 29.89 inHg
Clouds: Clear
Visibility: 9 mi
Cloud details: Clear
KBTP 141056Z AUTO 00000KT 9SM CLR 14/14 A2989 RMK AO2 SLP120 T01440139 $
KUCP - New Castle Muni, Pennsylvania, USA
Distance from station: W 75 mi
Updated: Jun 14 2021 6:56 am
Clear  
Clear  
   Wind: Calm
Wind: Calm
Temperature: 57.2°F
Dew Point: 55.4°F
Humidity: 94%
Barometer: 29.88 inHg
Clouds: Clear
Visibility: 9 mi
Cloud details: Clear
KUCP 141056Z AUTO 00000KT 9SM CLR 14/13 A2988 RMK AO2 SLP126 T01390133
KFKL - Franklin, Pennsylvania, USA
Distance from station: WNW 54 mi
Updated: Jun 14 2021 6:56 am
Clear  
Clear  
   Wind: SSW 4.6 mph
Wind: SSW 4.6 mph
Temperature: 55.4°F
Dew Point: 55.4°F
Humidity: 100%
Barometer: 29.88 inHg
Clouds: Clear
Visibility: 10 mi
Cloud details: Clear
KFKL 141056Z AUTO 20004KT 10SM CLR 13/13 A2988 RMK AO2 SLP111 T01330128
KAOO - Altoona, Pennsylvania, USA
Distance from station: SE 57 mi
Updated: Jun 14 2021 6:53 am
Mist, Clear  
Mist, Clear  
   Wind: Calm
Wind: Calm
Temperature: 64.4°F
Dew Point: 60.8°F
Humidity: 88%
Barometer: 29.87 inHg
Clouds: Clear
Visibility: 4 mi
Cloud details: Clear
KAOO 141053Z AUTO 00000KT 4SM BR CLR 18/16 A2987 RMK AO2 SLP107 T01830161
KUNV - State College, Pennsylvania, USA
Distance from station: E 61 mi
Updated: Jun 14 2021 6:53 am
Partly Cloudy  
Partly Cloudy  
   Wind: West 4.6 mph
Wind: West 4.6 mph
Temperature: 62.6°F
Dew Point: 62.6°F
Humidity: 100%
Barometer: 29.85 inHg
Clouds: Partly Cloudy
Visibility: 10 mi
Cloud details: Partly Cloudy 6500 ft
KUNV 141053Z 28004KT 10SM SCT065 17/17 A2985
KBFD - Bradford, Pennsylvania, USA
Distance from station: NNE 62 mi
Updated: Jun 14 2021 6:53 am
Clear  
Clear  
   Wind: Calm
Wind: Calm
Temperature: 53.6°F
Dew Point: 51.8°F
Humidity: 94%
Barometer: 29.87 inHg
Clouds: Clear
Visibility: 7 mi
Cloud details: Clear
KBFD 141053Z AUTO 00000KT 7SM CLR 12/11 A2987 RMK AO2 SLP107 T01170106

Script developed by  Saratoga-weather.org Adapted for the template by  Weerstation Leuven

Equipment we use:

Weather-station
Davis VP2

Weather-program
Cumulus

Weather-server
Dell Latitude e5450

Provider
Host On A Rope

Davis VP2

Cumulus

Dell Latitude e5450

Host On A Rope